sensor_id;sensor_type;location;lat;lon;timestamp;P1;durP1;ratioP1;P2;durP2;ratioP2
40669;SDS011;26355;45.528;9.234;2023-08-06T00:00:24;9.10;;;2.45;;
40669;SDS011;26355;45.528;9.234;2023-08-06T00:02:49;9.35;;;2.30;;
40669;SDS011;26355;45.528;9.234;2023-08-06T00:05:15;9.80;;;2.50;;
40669;SDS011;26355;45.528;9.234;2023-08-06T00:07:43;6.40;;;1.98;;
40669;SDS011;26355;45.528;9.234;2023-08-06T00:10:10;5.40;;;2.17;;
40669;SDS011;26355;45.528;9.234;2023-08-06T00:12:35;8.63;;;2.10;;
40669;SDS011;26355;45.528;9.234;2023-08-06T00:15:01;9.77;;;2.30;;
40669;SDS011;26355;45.528;9.234;2023-08-06T00:17:27;5.63;;;1.90;;
40669;SDS011;26355;45.528;9.234;2023-08-06T00:19:52;5.47;;;2.00;;
40669;SDS011;26355;45.528;9.234;2023-08-06T00:22:18;5.57;;;1.70;;
40669;SDS011;26355;45.528;9.234;2023-08-06T00:24:43;6.75;;;1.65;;
40669;SDS011;26355;45.528;9.234;2023-08-06T00:27:09;6.60;;;2.10;;
40669;SDS011;26355;45.528;9.234;2023-08-06T00:29:35;5.05;;;1.85;;
40669;SDS011;26355;45.528;9.234;2023-08-06T00:32:00;3.47;;;1.50;;
40669;SDS011;26355;45.528;9.234;2023-08-06T00:34:26;6.07;;;1.90;;
40669;SDS011;26355;45.528;9.234;2023-08-06T00:36:51;5.90;;;1.80;;
40669;SDS011;26355;45.528;9.234;2023-08-06T00:39:18;4.43;;;1.67;;
40669;SDS011;26355;45.528;9.234;2023-08-06T00:41:44;6.28;;;1.80;;
40669;SDS011;26355;45.528;9.234;2023-08-06T00:44:09;4.65;;;1.67;;
40669;SDS011;26355;45.528;9.234;2023-08-06T00:46:35;4.68;;;1.70;;
40669;SDS011;26355;45.528;9.234;2023-08-06T00:49:01;6.32;;;1.90;;
40669;SDS011;26355;45.528;9.234;2023-08-06T00:51:27;5.15;;;1.55;;
40669;SDS011;26355;45.528;9.234;2023-08-06T00:53:52;4.20;;;1.73;;
40669;SDS011;26355;45.528;9.234;2023-08-06T00:56:19;3.55;;;1.50;;
40669;SDS011;26355;45.528;9.234;2023-08-06T00:58:45;7.45;;;1.88;;
40669;SDS011;26355;45.528;9.234;2023-08-06T01:01:11;2.72;;;1.40;;
40669;SDS011;26355;45.528;9.234;2023-08-06T01:03:36;4.03;;;1.73;;
40669;SDS011;26355;45.528;9.234;2023-08-06T01:06:02;6.50;;;1.73;;
40669;SDS011;26355;45.528;9.234;2023-08-06T01:14:18;4.47;;;1.60;;
40669;SDS011;26355;45.528;9.234;2023-08-06T01:16:58;5.45;;;1.77;;
40669;SDS011;26355;45.528;9.234;2023-08-06T01:19:24;4.53;;;1.45;;
40669;SDS011;26355;45.528;9.234;2023-08-06T01:21:50;5.30;;;1.90;;
40669;SDS011;26355;45.528;9.234;2023-08-06T01:24:15;6.00;;;1.80;;
40669;SDS011;26355;45.528;9.234;2023-08-06T01:27:26;5.63;;;1.55;;
40669;SDS011;26355;45.528;9.234;2023-08-06T01:29:49;4.20;;;1.40;;
40669;SDS011;26355;45.528;9.234;2023-08-06T01:32:21;5.20;;;1.70;;
40669;SDS011;26355;45.528;9.234;2023-08-06T01:34:49;4.60;;;1.80;;
40669;SDS011;26355;45.528;9.234;2023-08-06T01:37:16;5.95;;;1.98;;
40669;SDS011;26355;45.528;9.234;2023-08-06T01:39:44;7.10;;;1.83;;
40669;SDS011;26355;45.528;9.234;2023-08-06T01:42:10;7.03;;;2.20;;
40669;SDS011;26355;45.528;9.234;2023-08-06T01:44:35;8.77;;;2.40;;
40669;SDS011;26355;45.528;9.234;2023-08-06T02:00:12;5.97;;;1.90;;
40669;SDS011;26355;45.528;9.234;2023-08-06T02:07:23;4.72;;;1.70;;
40669;SDS011;26355;45.528;9.234;2023-08-06T02:09:48;5.40;;;1.70;;
40669;SDS011;26355;45.528;9.234;2023-08-06T02:12:14;6.07;;;1.83;;
40669;SDS011;26355;45.528;9.234;2023-08-06T02:14:39;6.32;;;1.98;;
40669;SDS011;26355;45.528;9.234;2023-08-06T02:17:05;4.85;;;1.67;;
40669;SDS011;26355;45.528;9.234;2023-08-06T02:19:31;4.53;;;1.60;;
40669;SDS011;26355;45.528;9.234;2023-08-06T02:21:56;5.18;;;1.85;;
40669;SDS011;26355;45.528;9.234;2023-08-06T02:24:22;6.20;;;1.70;;
40669;SDS011;26355;45.528;9.234;2023-08-06T02:26:47;4.15;;;1.55;;
40669;SDS011;26355;45.528;9.234;2023-08-06T02:29:15;5.40;;;1.48;;
40669;SDS011;26355;45.528;9.234;2023-08-06T02:31:42;4.90;;;1.42;;
40669;SDS011;26355;45.528;9.234;2023-08-06T02:34:07;4.38;;;1.52;;
40669;SDS011;26355;45.528;9.234;2023-08-06T02:36:33;3.95;;;1.40;;
40669;SDS011;26355;45.528;9.234;2023-08-06T02:38:58;4.63;;;1.33;;
40669;SDS011;26355;45.528;9.234;2023-08-06T02:41:24;6.25;;;1.45;;
40669;SDS011;26355;45.528;9.234;2023-08-06T02:43:49;4.57;;;1.50;;
40669;SDS011;26355;45.528;9.234;2023-08-06T02:46:15;4.32;;;1.52;;
40669;SDS011;26355;45.528;9.234;2023-08-06T02:48:40;7.18;;;1.60;;
40669;SDS011;26355;45.528;9.234;2023-08-06T02:51:06;5.60;;;1.40;;
40669;SDS011;26355;45.528;9.234;2023-08-06T02:53:32;8.23;;;1.67;;
40669;SDS011;26355;45.528;9.234;2023-08-06T02:55:57;5.15;;;1.50;;
40669;SDS011;26355;45.528;9.234;2023-08-06T02:58:23;6.47;;;1.80;;
40669;SDS011;26355;45.528;9.234;2023-08-06T03:00:59;5.07;;;1.80;;
40669;SDS011;26355;45.528;9.234;2023-08-06T03:03:33;4.20;;;1.50;;
40669;SDS011;26355;45.528;9.234;2023-08-06T03:05:59;4.35;;;1.50;;
40669;SDS011;26355;45.528;9.234;2023-08-06T03:08:25;3.57;;;1.40;;
40669;SDS011;26355;45.528;9.234;2023-08-06T03:10:51;4.53;;;1.50;;
40669;SDS011;26355;45.528;9.234;2023-08-06T03:13:17;7.68;;;2.00;;
40669;SDS011;26355;45.528;9.234;2023-08-06T03:15:43;5.05;;;1.80;;
40669;SDS011;26355;45.528;9.234;2023-08-06T03:18:16;5.95;;;1.98;;
40669;SDS011;26355;45.528;9.234;2023-08-06T03:20:42;5.03;;;1.60;;
40669;SDS011;26355;45.528;9.234;2023-08-06T03:23:07;5.75;;;1.80;;
40669;SDS011;26355;45.528;9.234;2023-08-06T03:25:35;5.85;;;1.48;;
40669;SDS011;26355;45.528;9.234;2023-08-06T03:28:01;4.25;;;1.50;;
40669;SDS011;26355;45.528;9.234;2023-08-06T03:30:27;8.32;;;1.80;;
40669;SDS011;26355;45.528;9.234;2023-08-06T03:32:52;5.78;;;1.70;;
40669;SDS011;26355;45.528;9.234;2023-08-06T03:35:18;6.72;;;1.73;;
40669;SDS011;26355;45.528;9.234;2023-08-06T03:37:43;7.88;;;2.33;;
40669;SDS011;26355;45.528;9.234;2023-08-06T03:40:09;7.10;;;2.00;;
40669;SDS011;26355;45.528;9.234;2023-08-06T03:42:35;6.60;;;1.70;;
40669;SDS011;26355;45.528;9.234;2023-08-06T03:45:01;3.20;;;1.50;;
40669;SDS011;26355;45.528;9.234;2023-08-06T03:47:26;6.47;;;1.90;;
40669;SDS011;26355;45.528;9.234;2023-08-06T03:49:52;5.85;;;1.60;;
40669;SDS011;26355;45.528;9.234;2023-08-06T03:52:17;4.10;;;1.77;;
40669;SDS011;26355;45.528;9.234;2023-08-06T03:54:43;5.55;;;1.73;;
40669;SDS011;26355;45.528;9.234;2023-08-06T03:57:09;5.75;;;1.70;;
40669;SDS011;26355;45.528;9.234;2023-08-06T03:59:35;5.55;;;1.88;;
40669;SDS011;26355;45.528;9.234;2023-08-06T04:02:01;5.38;;;1.95;;
40669;SDS011;26355;45.528;9.234;2023-08-06T04:04:26;4.03;;;1.70;;
40669;SDS011;26355;45.528;9.234;2023-08-06T04:06:52;4.93;;;1.90;;
40669;SDS011;26355;45.528;9.234;2023-08-06T04:09:17;8.13;;;2.40;;
40669;SDS011;26355;45.528;9.234;2023-08-06T04:11:43;7.88;;;2.08;;
40669;SDS011;26355;45.528;9.234;2023-08-06T04:14:08;7.82;;;2.00;;
40669;SDS011;26355;45.528;9.234;2023-08-06T04:16:34;6.88;;;2.10;;
40669;SDS011;26355;45.528;9.234;2023-08-06T04:19:00;8.77;;;2.30;;
40669;SDS011;26355;45.528;9.234;2023-08-06T04:21:25;10.32;;;2.00;;
40669;SDS011;26355;45.528;9.234;2023-08-06T04:23:51;7.10;;;2.15;;
40669;SDS011;26355;45.528;9.234;2023-08-06T04:26:16;6.78;;;1.73;;
40669;SDS011;26355;45.528;9.234;2023-08-06T04:28:42;11.32;;;2.05;;
40669;SDS011;26355;45.528;9.234;2023-08-06T04:31:07;7.15;;;2.20;;
40669;SDS011;26355;45.528;9.234;2023-08-06T04:33:33;7.95;;;2.15;;
40669;SDS011;26355;45.528;9.234;2023-08-06T04:35:59;7.80;;;2.28;;
40669;SDS011;26355;45.528;9.234;2023-08-06T04:38:24;6.50;;;2.20;;
40669;SDS011;26355;45.528;9.234;2023-08-06T04:40:50;11.82;;;2.30;;
40669;SDS011;26355;45.528;9.234;2023-08-06T04:43:16;8.15;;;2.40;;
40669;SDS011;26355;45.528;9.234;2023-08-06T04:45:45;7.53;;;2.30;;
40669;SDS011;26355;45.528;9.234;2023-08-06T04:48:12;6.30;;;1.80;;
40669;SDS011;26355;45.528;9.234;2023-08-06T04:50:38;7.75;;;2.15;;
40669;SDS011;26355;45.528;9.234;2023-08-06T04:53:04;7.38;;;1.73;;
40669;SDS011;26355;45.528;9.234;2023-08-06T04:55:30;5.68;;;1.90;;
40669;SDS011;26355;45.528;9.234;2023-08-06T04:57:55;4.63;;;1.80;;
40669;SDS011;26355;45.528;9.234;2023-08-06T05:00:21;6.28;;;1.85;;
40669;SDS011;26355;45.528;9.234;2023-08-06T05:02:46;5.40;;;1.67;;
40669;SDS011;26355;45.528;9.234;2023-08-06T05:05:12;5.10;;;1.45;;
40669;SDS011;26355;45.528;9.234;2023-08-06T05:07:37;4.93;;;1.88;;
40669;SDS011;26355;45.528;9.234;2023-08-06T05:10:03;5.85;;;2.00;;
40669;SDS011;26355;45.528;9.234;2023-08-06T05:12:29;4.80;;;1.70;;
40669;SDS011;26355;45.528;9.234;2023-08-06T05:14:55;5.93;;;1.92;;
40669;SDS011;26355;45.528;9.234;2023-08-06T05:17:20;5.20;;;1.65;;
40669;SDS011;26355;45.528;9.234;2023-08-06T05:19:47;5.75;;;1.90;;
40669;SDS011;26355;45.528;9.234;2023-08-06T05:22:13;9.27;;;2.05;;
40669;SDS011;26355;45.528;9.234;2023-08-06T05:24:38;5.18;;;2.08;;
40669;SDS011;26355;45.528;9.234;2023-08-06T05:27:04;5.97;;;1.85;;
40669;SDS011;26355;45.528;9.234;2023-08-06T05:29:30;6.35;;;2.40;;
40669;SDS011;26355;45.528;9.234;2023-08-06T05:31:56;6.13;;;2.17;;
40669;SDS011;26355;45.528;9.234;2023-08-06T05:34:21;8.85;;;2.10;;
40669;SDS011;26355;45.528;9.234;2023-08-06T05:36:47;6.03;;;2.17;;
40669;SDS011;26355;45.528;9.234;2023-08-06T05:39:12;7.50;;;1.98;;
40669;SDS011;26355;45.528;9.234;2023-08-06T05:41:38;4.38;;;1.77;;
40669;SDS011;26355;45.528;9.234;2023-08-06T05:44:03;6.03;;;1.80;;
40669;SDS011;26355;45.528;9.234;2023-08-06T05:46:29;8.07;;;1.80;;
40669;SDS011;26355;45.528;9.234;2023-08-06T05:48:54;9.18;;;2.20;;
40669;SDS011;26355;45.528;9.234;2023-08-06T05:51:20;6.70;;;1.50;;
40669;SDS011;26355;45.528;9.234;2023-08-06T05:53:45;3.78;;;1.40;;
40669;SDS011;26355;45.528;9.234;2023-08-06T05:56:12;4.88;;;1.70;;
40669;SDS011;26355;45.528;9.234;2023-08-06T05:58:37;5.15;;;1.63;;
40669;SDS011;26355;45.528;9.234;2023-08-06T06:01:03;5.75;;;1.70;;
40669;SDS011;26355;45.528;9.234;2023-08-06T06:03:28;6.32;;;1.85;;
40669;SDS011;26355;45.528;9.234;2023-08-06T06:05:54;3.38;;;1.60;;
40669;SDS011;26355;45.528;9.234;2023-08-06T06:08:19;4.65;;;1.80;;
40669;SDS011;26355;45.528;9.234;2023-08-06T06:10:45;6.05;;;1.90;;
40669;SDS011;26355;45.528;9.234;2023-08-06T06:13:10;3.78;;;1.45;;
40669;SDS011;26355;45.528;9.234;2023-08-06T06:15:36;6.50;;;1.80;;
40669;SDS011;26355;45.528;9.234;2023-08-06T06:18:03;7.60;;;1.65;;
40669;SDS011;26355;45.528;9.234;2023-08-06T06:20:28;2.50;;;1.15;;
40669;SDS011;26355;45.528;9.234;2023-08-06T06:22:54;4.00;;;1.38;;
40669;SDS011;26355;45.528;9.234;2023-08-06T06:25:19;5.57;;;1.63;;
40669;SDS011;26355;45.528;9.234;2023-08-06T06:27:45;2.47;;;1.42;;
40669;SDS011;26355;45.528;9.234;2023-08-06T06:30:10;5.05;;;1.45;;
40669;SDS011;26355;45.528;9.234;2023-08-06T06:32:37;3.60;;;1.35;;
40669;SDS011;26355;45.528;9.234;2023-08-06T06:35:02;3.13;;;1.30;;
40669;SDS011;26355;45.528;9.234;2023-08-06T06:37:28;3.75;;;1.42;;
40669;SDS011;26355;45.528;9.234;2023-08-06T06:39:54;2.58;;;1.30;;
40669;SDS011;26355;45.528;9.234;2023-08-06T06:42:19;2.92;;;1.35;;
40669;SDS011;26355;45.528;9.234;2023-08-06T06:44:45;4.20;;;1.27;;
40669;SDS011;26355;45.528;9.234;2023-08-06T06:47:11;3.63;;;1.50;;
40669;SDS011;26355;45.528;9.234;2023-08-06T06:49:36;2.38;;;1.20;;
40669;SDS011;26355;45.528;9.234;2023-08-06T06:52:02;4.05;;;1.50;;
40669;SDS011;26355;45.528;9.234;2023-08-06T06:54:27;2.67;;;1.38;;
40669;SDS011;26355;45.528;9.234;2023-08-06T06:56:53;3.42;;;1.50;;
40669;SDS011;26355;45.528;9.234;2023-08-06T06:59:19;4.75;;;1.60;;
40669;SDS011;26355;45.528;9.234;2023-08-06T07:01:44;4.00;;;1.33;;
40669;SDS011;26355;45.528;9.234;2023-08-06T07:04:10;3.35;;;1.33;;
40669;SDS011;26355;45.528;9.234;2023-08-06T07:06:35;3.03;;;1.50;;
40669;SDS011;26355;45.528;9.234;2023-08-06T07:09:01;4.35;;;1.38;;
40669;SDS011;26355;45.528;9.234;2023-08-06T07:11:26;5.07;;;1.30;;
40669;SDS011;26355;45.528;9.234;2023-08-06T07:13:58;5.30;;;1.35;;
40669;SDS011;26355;45.528;9.234;2023-08-06T07:16:24;8.27;;;1.92;;
40669;SDS011;26355;45.528;9.234;2023-08-06T07:18:51;5.40;;;1.70;;
40669;SDS011;26355;45.528;9.234;2023-08-06T07:21:17;5.88;;;1.83;;
40669;SDS011;26355;45.528;9.234;2023-08-06T07:23:43;5.18;;;1.58;;
40669;SDS011;26355;45.528;9.234;2023-08-06T07:26:09;3.92;;;1.30;;
40669;SDS011;26355;45.528;9.234;2023-08-06T07:28:34;7.15;;;1.98;;
40669;SDS011;26355;45.528;9.234;2023-08-06T07:31:00;5.40;;;1.45;;
40669;SDS011;26355;45.528;9.234;2023-08-06T07:33:28;3.70;;;1.40;;
40669;SDS011;26355;45.528;9.234;2023-08-06T07:35:54;3.03;;;1.38;;
40669;SDS011;26355;45.528;9.234;2023-08-06T07:38:19;2.65;;;1.20;;
40669;SDS011;26355;45.528;9.234;2023-08-06T07:40:45;5.73;;;1.30;;
40669;SDS011;26355;45.528;9.234;2023-08-06T07:43:11;3.53;;;1.30;;
40669;SDS011;26355;45.528;9.234;2023-08-06T07:45:36;3.63;;;1.38;;
40669;SDS011;26355;45.528;9.234;2023-08-06T07:48:02;6.05;;;1.40;;
40669;SDS011;26355;45.528;9.234;2023-08-06T07:50:28;5.43;;;1.73;;
40669;SDS011;26355;45.528;9.234;2023-08-06T07:52:54;5.90;;;1.80;;
40669;SDS011;26355;45.528;9.234;2023-08-06T07:55:19;5.68;;;1.48;;
40669;SDS011;26355;45.528;9.234;2023-08-06T07:57:45;2.50;;;1.35;;
40669;SDS011;26355;45.528;9.234;2023-08-06T08:00:10;4.35;;;1.30;;
40669;SDS011;26355;45.528;9.234;2023-08-06T08:02:36;3.28;;;1.40;;
40669;SDS011;26355;45.528;9.234;2023-08-06T08:05:02;4.25;;;1.30;;
40669;SDS011;26355;45.528;9.234;2023-08-06T08:07:27;4.70;;;1.50;;
40669;SDS011;26355;45.528;9.234;2023-08-06T08:09:55;3.70;;;1.38;;
40669;SDS011;26355;45.528;9.234;2023-08-06T08:12:21;4.80;;;1.40;;
40669;SDS011;26355;45.528;9.234;2023-08-06T08:14:47;8.57;;;1.80;;
40669;SDS011;26355;45.528;9.234;2023-08-06T08:17:12;7.97;;;1.50;;
40669;SDS011;26355;45.528;9.234;2023-08-06T08:19:39;3.67;;;1.38;;
40669;SDS011;26355;45.528;9.234;2023-08-06T08:24:31;4.17;;;1.20;;
40669;SDS011;26355;45.528;9.234;2023-08-06T08:26:56;5.35;;;1.27;;
40669;SDS011;26355;45.528;9.234;2023-08-06T08:29:22;3.08;;;1.38;;
40669;SDS011;26355;45.528;9.234;2023-08-06T08:31:48;3.45;;;1.20;;
40669;SDS011;26355;45.528;9.234;2023-08-06T08:36:41;4.57;;;1.30;;
40669;SDS011;26355;45.528;9.234;2023-08-06T08:39:06;2.85;;;1.25;;
40669;SDS011;26355;45.528;9.234;2023-08-06T08:41:33;5.75;;;1.40;;
40669;SDS011;26355;45.528;9.234;2023-08-06T08:43:59;3.80;;;1.42;;
40669;SDS011;26355;45.528;9.234;2023-08-06T08:46:27;3.53;;;1.60;;
40669;SDS011;26355;45.528;9.234;2023-08-06T08:48:55;4.38;;;1.55;;
40669;SDS011;26355;45.528;9.234;2023-08-06T08:51:24;4.88;;;1.50;;
40669;SDS011;26355;45.528;9.234;2023-08-06T08:53:50;3.22;;;1.33;;
40669;SDS011;26355;45.528;9.234;2023-08-06T08:56:21;3.60;;;1.35;;
40669;SDS011;26355;45.528;9.234;2023-08-06T08:58:47;3.53;;;1.30;;
40669;SDS011;26355;45.528;9.234;2023-08-06T09:01:13;4.40;;;1.40;;
40669;SDS011;26355;45.528;9.234;2023-08-06T09:03:40;4.10;;;1.30;;
40669;SDS011;26355;45.528;9.234;2023-08-06T09:06:07;2.83;;;1.33;;
40669;SDS011;26355;45.528;9.234;2023-08-06T09:08:36;4.95;;;1.60;;
40669;SDS011;26355;45.528;9.234;2023-08-06T09:11:09;3.00;;;1.40;;
40669;SDS011;26355;45.528;9.234;2023-08-06T09:13:37;2.53;;;1.20;;
40669;SDS011;26355;45.528;9.234;2023-08-06T09:16:03;2.80;;;1.25;;
40669;SDS011;26355;45.528;9.234;2023-08-06T09:18:29;3.20;;;1.33;;
40669;SDS011;26355;45.528;9.234;2023-08-06T09:20:56;3.40;;;1.30;;
40669;SDS011;26355;45.528;9.234;2023-08-06T09:23:30;2.83;;;1.00;;
40669;SDS011;26355;45.528;9.234;2023-08-06T09:25:57;3.22;;;1.10;;
40669;SDS011;26355;45.528;9.234;2023-08-06T09:28:22;2.92;;;1.10;;
40669;SDS011;26355;45.528;9.234;2023-08-06T09:30:52;6.22;;;1.33;;
40669;SDS011;26355;45.528;9.234;2023-08-06T09:33:20;5.72;;;1.20;;
40669;SDS011;26355;45.528;9.234;2023-08-06T09:35:47;2.72;;;1.20;;
40669;SDS011;26355;45.528;9.234;2023-08-06T09:38:13;3.55;;;1.10;;
40669;SDS011;26355;45.528;9.234;2023-08-06T09:40:39;2.00;;;0.98;;
40669;SDS011;26355;45.528;9.234;2023-08-06T09:43:05;4.88;;;1.40;;
40669;SDS011;26355;45.528;9.234;2023-08-06T09:45:32;2.97;;;1.17;;
40669;SDS011;26355;45.528;9.234;2023-08-06T09:48:06;4.65;;;1.20;;
40669;SDS011;26355;45.528;9.234;2023-08-06T09:50:34;5.80;;;1.30;;
40669;SDS011;26355;45.528;9.234;2023-08-06T09:53:01;4.28;;;1.00;;
40669;SDS011;26355;45.528;9.234;2023-08-06T09:55:28;5.95;;;1.27;;
40669;SDS011;26355;45.528;9.234;2023-08-06T09:57:54;2.60;;;1.13;;
40669;SDS011;26355;45.528;9.234;2023-08-06T10:00:20;2.83;;;1.27;;
40669;SDS011;26355;45.528;9.234;2023-08-06T10:02:47;2.63;;;1.17;;
40669;SDS011;26355;45.528;9.234;2023-08-06T10:05:13;4.65;;;1.20;;
40669;SDS011;26355;45.528;9.234;2023-08-06T10:07:40;2.85;;;1.10;;
40669;SDS011;26355;45.528;9.234;2023-08-06T10:10:08;2.47;;;0.93;;
40669;SDS011;26355;45.528;9.234;2023-08-06T10:12:35;3.08;;;1.10;;
40669;SDS011;26355;45.528;9.234;2023-08-06T10:15:08;4.53;;;1.05;;
40669;SDS011;26355;45.528;9.234;2023-08-06T10:17:37;3.53;;;1.27;;
40669;SDS011;26355;45.528;9.234;2023-08-06T10:20:05;3.08;;;1.08;;
40669;SDS011;26355;45.528;9.234;2023-08-06T10:22:33;2.25;;;1.02;;
40669;SDS011;26355;45.528;9.234;2023-08-06T10:24:59;2.95;;;1.27;;
40669;SDS011;26355;45.528;9.234;2023-08-06T10:27:39;2.90;;;1.10;;
40669;SDS011;26355;45.528;9.234;2023-08-06T10:30:24;2.92;;;0.98;;
40669;SDS011;26355;45.528;9.234;2023-08-06T10:35:36;2.28;;;0.90;;
40669;SDS011;26355;45.528;9.234;2023-08-06T10:40:42;2.67;;;0.98;;
40669;SDS011;26355;45.528;9.234;2023-08-06T10:43:26;3.22;;;1.30;;
40669;SDS011;26355;45.528;9.234;2023-08-06T10:45:52;3.40;;;1.10;;
40669;SDS011;26355;45.528;9.234;2023-08-06T10:48:30;4.07;;;1.20;;
40669;SDS011;26355;45.528;9.234;2023-08-06T10:50:59;4.07;;;1.27;;
40669;SDS011;26355;45.528;9.234;2023-08-06T10:53:26;1.73;;;0.98;;
40669;SDS011;26355;45.528;9.234;2023-08-06T10:55:52;2.47;;;1.02;;
40669;SDS011;26355;45.528;9.234;2023-08-06T10:58:17;3.30;;;1.27;;
40669;SDS011;26355;45.528;9.234;2023-08-06T11:01:01;2.28;;;1.10;;
40669;SDS011;26355;45.528;9.234;2023-08-06T11:04:21;4.32;;;1.15;;
40669;SDS011;26355;45.528;9.234;2023-08-06T11:10:38;3.92;;;1.00;;
40669;SDS011;26355;45.528;9.234;2023-08-06T11:13:51;2.47;;;1.15;;
40669;SDS011;26355;45.528;9.234;2023-08-06T11:27:51;3.20;;;1.02;;
40669;SDS011;26355;45.528;9.234;2023-08-06T11:35:32;9.43;;;3.10;;
40669;SDS011;26355;45.528;9.234;2023-08-06T11:56:58;6.50;;;1.35;;
40669;SDS011;26355;45.528;9.234;2023-08-06T12:04:05;4.97;;;1.50;;
40669;SDS011;26355;45.528;9.234;2023-08-06T12:07:47;2.55;;;0.70;;
40669;SDS011;26355;45.528;9.234;2023-08-06T12:11:14;5.40;;;1.40;;
40669;SDS011;26355;45.528;9.234;2023-08-06T12:14:41;7.50;;;1.60;;
40669;SDS011;26355;45.528;9.234;2023-08-06T12:17:35;6.40;;;1.60;;
40669;SDS011;26355;45.528;9.234;2023-08-06T12:24:52;3.75;;;1.00;;
40669;SDS011;26355;45.528;9.234;2023-08-06T12:42:32;1.42;;;0.70;;
40669;SDS011;26355;45.528;9.234;2023-08-06T12:45:24;1.67;;;0.65;;
40669;SDS011;26355;45.528;9.234;2023-08-06T12:47:50;1.38;;;0.75;;
40669;SDS011;26355;45.528;9.234;2023-08-06T12:50:21;2.03;;;0.88;;
40669;SDS011;26355;45.528;9.234;2023-08-06T12:52:47;1.13;;;0.52;;
40669;SDS011;26355;45.528;9.234;2023-08-06T12:55:13;0.75;;;0.50;;
40669;SDS011;26355;45.528;9.234;2023-08-06T12:57:38;1.90;;;0.75;;
40669;SDS011;26355;45.528;9.234;2023-08-06T13:00:12;1.42;;;0.47;;
40669;SDS011;26355;45.528;9.234;2023-08-06T13:02:37;2.40;;;0.73;;
40669;SDS011;26355;45.528;9.234;2023-08-06T13:05:03;3.35;;;0.70;;
40669;SDS011;26355;45.528;9.234;2023-08-06T13:07:31;3.03;;;0.80;;
40669;SDS011;26355;45.528;9.234;2023-08-06T13:09:56;0.75;;;0.40;;
40669;SDS011;26355;45.528;9.234;2023-08-06T13:12:22;6.75;;;1.67;;
40669;SDS011;26355;45.528;9.234;2023-08-06T13:14:48;1.08;;;0.60;;
40669;SDS011;26355;45.528;9.234;2023-08-06T13:17:14;1.05;;;0.63;;
40669;SDS011;26355;45.528;9.234;2023-08-06T13:19:42;1.83;;;0.50;;
40669;SDS011;26355;45.528;9.234;2023-08-06T13:22:10;4.22;;;0.55;;
40669;SDS011;26355;45.528;9.234;2023-08-06T13:24:36;2.05;;;0.73;;
40669;SDS011;26355;45.528;9.234;2023-08-06T13:27:02;1.55;;;0.63;;
40669;SDS011;26355;45.528;9.234;2023-08-06T13:29:28;0.93;;;0.47;;
40669;SDS011;26355;45.528;9.234;2023-08-06T13:31:53;0.98;;;0.50;;
40669;SDS011;26355;45.528;9.234;2023-08-06T13:34:19;1.55;;;0.73;;
40669;SDS011;26355;45.528;9.234;2023-08-06T13:36:45;2.45;;;1.10;;
40669;SDS011;26355;45.528;9.234;2023-08-06T13:39:11;5.20;;;0.77;;
40669;SDS011;26355;45.528;9.234;2023-08-06T13:41:37;2.67;;;0.68;;
40669;SDS011;26355;45.528;9.234;2023-08-06T13:44:04;2.38;;;0.55;;
40669;SDS011;26355;45.528;9.234;2023-08-06T13:46:30;3.47;;;0.60;;
40669;SDS011;26355;45.528;9.234;2023-08-06T13:48:56;2.00;;;0.75;;
40669;SDS011;26355;45.528;9.234;2023-08-06T13:51:22;2.33;;;0.50;;
40669;SDS011;26355;45.528;9.234;2023-08-06T13:56:32;1.50;;;0.70;;
40669;SDS011;26355;45.528;9.234;2023-08-06T13:59:00;4.15;;;0.70;;
40669;SDS011;26355;45.528;9.234;2023-08-06T14:01:25;3.35;;;0.77;;
40669;SDS011;26355;45.528;9.234;2023-08-06T14:03:51;2.60;;;0.40;;
40669;SDS011;26355;45.528;9.234;2023-08-06T14:08:44;1.67;;;0.73;;
40669;SDS011;26355;45.528;9.234;2023-08-06T14:11:09;5.05;;;0.70;;
40669;SDS011;26355;45.528;9.234;2023-08-06T14:13:35;0.55;;;0.45;;
40669;SDS011;26355;45.528;9.234;2023-08-06T14:16:01;0.93;;;0.57;;
40669;SDS011;26355;45.528;9.234;2023-08-06T14:18:27;2.15;;;0.70;;
40669;SDS011;26355;45.528;9.234;2023-08-06T14:20:52;2.80;;;0.45;;
40669;SDS011;26355;45.528;9.234;2023-08-06T14:23:18;1.20;;;0.40;;
40669;SDS011;26355;45.528;9.234;2023-08-06T14:25:44;1.45;;;0.50;;
40669;SDS011;26355;45.528;9.234;2023-08-06T14:28:09;2.83;;;0.60;;
40669;SDS011;26355;45.528;9.234;2023-08-06T14:30:36;2.63;;;0.40;;
40669;SDS011;26355;45.528;9.234;2023-08-06T14:33:01;0.63;;;0.40;;
40669;SDS011;26355;45.528;9.234;2023-08-06T14:35:31;4.47;;;1.15;;
40669;SDS011;26355;45.528;9.234;2023-08-06T14:37:56;2.25;;;0.60;;
40669;SDS011;26355;45.528;9.234;2023-08-06T14:40:22;1.65;;;0.60;;
40669;SDS011;26355;45.528;9.234;2023-08-06T14:42:48;1.75;;;0.50;;
40669;SDS011;26355;45.528;9.234;2023-08-06T14:45:13;2.25;;;0.55;;
40669;SDS011;26355;45.528;9.234;2023-08-06T14:47:39;1.90;;;0.50;;
40669;SDS011;26355;45.528;9.234;2023-08-06T14:50:04;2.33;;;0.43;;
40669;SDS011;26355;45.528;9.234;2023-08-06T14:52:30;1.67;;;0.52;;
40669;SDS011;26355;45.528;9.234;2023-08-06T14:54:56;1.08;;;0.40;;
40669;SDS011;26355;45.528;9.234;2023-08-06T14:57:22;0.73;;;0.32;;
40669;SDS011;26355;45.528;9.234;2023-08-06T14:59:52;1.98;;;0.40;;
40669;SDS011;26355;45.528;9.234;2023-08-06T15:02:18;2.73;;;0.50;;
40669;SDS011;26355;45.528;9.234;2023-08-06T15:04:44;2.60;;;0.40;;
40669;SDS011;26355;45.528;9.234;2023-08-06T15:07:09;0.93;;;0.55;;
40669;SDS011;26355;45.528;9.234;2023-08-06T15:09:35;1.55;;;0.47;;
40669;SDS011;26355;45.528;9.234;2023-08-06T15:12:00;2.97;;;0.55;;
40669;SDS011;26355;45.528;9.234;2023-08-06T15:14:26;0.40;;;0.25;;
40669;SDS011;26355;45.528;9.234;2023-08-06T15:16:51;1.58;;;0.65;;
40669;SDS011;26355;45.528;9.234;2023-08-06T15:19:18;2.53;;;0.53;;
40669;SDS011;26355;45.528;9.234;2023-08-06T15:21:43;1.63;;;0.65;;
40669;SDS011;26355;45.528;9.234;2023-08-06T15:24:09;1.95;;;0.52;;
40669;SDS011;26355;45.528;9.234;2023-08-06T15:26:34;1.40;;;0.45;;
40669;SDS011;26355;45.528;9.234;2023-08-06T15:29:00;0.80;;;0.40;;
40669;SDS011;26355;45.528;9.234;2023-08-06T15:31:25;1.60;;;0.40;;
40669;SDS011;26355;45.528;9.234;2023-08-06T15:34:04;0.73;;;0.40;;
40669;SDS011;26355;45.528;9.234;2023-08-06T15:36:31;1.23;;;0.50;;
40669;SDS011;26355;45.528;9.234;2023-08-06T15:38:58;0.38;;;0.30;;
40669;SDS011;26355;45.528;9.234;2023-08-06T15:41:24;3.33;;;0.43;;
40669;SDS011;26355;45.528;9.234;2023-08-06T15:43:50;1.40;;;0.50;;
40669;SDS011;26355;45.528;9.234;2023-08-06T15:46:15;1.08;;;0.40;;
40669;SDS011;26355;45.528;9.234;2023-08-06T15:48:41;1.92;;;0.40;;
40669;SDS011;26355;45.528;9.234;2023-08-06T15:51:06;0.55;;;0.50;;
40669;SDS011;26355;45.528;9.234;2023-08-06T15:53:33;2.63;;;0.60;;
40669;SDS011;26355;45.528;9.234;2023-08-06T15:55:58;1.20;;;0.50;;
40669;SDS011;26355;45.528;9.234;2023-08-06T15:58:24;1.30;;;0.60;;
40669;SDS011;26355;45.528;9.234;2023-08-06T16:00:50;0.82;;;0.40;;
40669;SDS011;26355;45.528;9.234;2023-08-06T16:03:15;1.77;;;0.50;;
40669;SDS011;26355;45.528;9.234;2023-08-06T16:05:41;0.85;;;0.40;;
40669;SDS011;26355;45.528;9.234;2023-08-06T16:08:08;1.10;;;0.50;;
40669;SDS011;26355;45.528;9.234;2023-08-06T16:10:33;1.92;;;0.70;;
40669;SDS011;26355;45.528;9.234;2023-08-06T16:12:59;1.70;;;0.60;;
40669;SDS011;26355;45.528;9.234;2023-08-06T16:15:25;1.55;;;0.60;;
40669;SDS011;26355;45.528;9.234;2023-08-06T16:17:50;2.92;;;0.70;;
40669;SDS011;26355;45.528;9.234;2023-08-06T16:20:16;1.60;;;0.63;;
40669;SDS011;26355;45.528;9.234;2023-08-06T16:22:42;2.60;;;0.60;;
40669;SDS011;26355;45.528;9.234;2023-08-06T16:25:08;3.22;;;0.98;;
40669;SDS011;26355;45.528;9.234;2023-08-06T16:27:36;1.50;;;0.60;;
40669;SDS011;26355;45.528;9.234;2023-08-06T16:30:02;1.10;;;0.73;;
40669;SDS011;26355;45.528;9.234;2023-08-06T16:32:28;1.27;;;0.43;;